sensor_id;sensor_type;location;lat;lon;timestamp;temperature;humidity
66568;DHT22;53422;49.296;6.900;2024-01-30T00:01:05;3.20;99.90
66568;DHT22;53422;49.296;6.900;2024-01-30T00:03:31;3.20;99.90
66568;DHT22;53422;49.296;6.900;2024-01-30T00:05:57;3.20;99.90
66568;DHT22;53422;49.296;6.900;2024-01-30T00:08:23;3.20;99.90
66568;DHT22;53422;49.296;6.900;2024-01-30T00:10:48;3.20;99.90
66568;DHT22;53422;49.296;6.900;2024-01-30T00:13:14;3.20;99.90
66568;DHT22;53422;49.296;6.900;2024-01-30T00:15:41;3.20;99.90
66568;DHT22;53422;49.296;6.900;2024-01-30T00:18:07;3.20;99.90
66568;DHT22;53422;49.296;6.900;2024-01-30T00:20:32;3.20;99.90
66568;DHT22;53422;49.296;6.900;2024-01-30T00:22:58;3.20;99.90
66568;DHT22;53422;49.296;6.900;2024-01-30T00:25:24;3.20;99.90
66568;DHT22;53422;49.296;6.900;2024-01-30T00:27:49;3.10;99.90
66568;DHT22;53422;49.296;6.900;2024-01-30T00:30:15;3.10;99.90
66568;DHT22;53422;49.296;6.900;2024-01-30T00:32:41;3.10;99.90
66568;DHT22;53422;49.296;6.900;2024-01-30T00:35:06;3.10;99.90
66568;DHT22;53422;49.296;6.900;2024-01-30T00:37:32;3.10;99.90
66568;DHT22;53422;49.296;6.900;2024-01-30T00:39:58;3.10;99.90
66568;DHT22;53422;49.296;6.900;2024-01-30T00:42:23;3.10;99.90
66568;DHT22;53422;49.296;6.900;2024-01-30T00:44:49;3.10;99.90
66568;DHT22;53422;49.296;6.900;2024-01-30T00:47:15;3.10;99.90
66568;DHT22;53422;49.296;6.900;2024-01-30T00:49:41;3.10;99.90
66568;DHT22;53422;49.296;6.900;2024-01-30T00:52:06;3.10;99.90
66568;DHT22;53422;49.296;6.900;2024-01-30T00:54:32;3.10;99.90
66568;DHT22;53422;49.296;6.900;2024-01-30T00:56:58;3.10;99.90
66568;DHT22;53422;49.296;6.900;2024-01-30T00:59:24;3.10;99.90
66568;DHT22;53422;49.296;6.900;2024-01-30T01:01:50;3.10;99.90
66568;DHT22;53422;49.296;6.900;2024-01-30T01:04:16;3.10;99.90
66568;DHT22;53422;49.296;6.900;2024-01-30T01:06:43;3.10;99.90
66568;DHT22;53422;49.296;6.900;2024-01-30T01:09:11;3.10;99.90
66568;DHT22;53422;49.296;6.900;2024-01-30T01:11:37;3.00;99.90
66568;DHT22;53422;49.296;6.900;2024-01-30T01:14:03;3.00;99.90
66568;DHT22;53422;49.296;6.900;2024-01-30T01:16:29;3.00;99.90
66568;DHT22;53422;49.296;6.900;2024-01-30T01:18:55;3.00;99.90
66568;DHT22;53422;49.296;6.900;2024-01-30T01:21:20;3.00;99.90
66568;DHT22;53422;49.296;6.900;2024-01-30T01:23:46;3.00;99.90
66568;DHT22;53422;49.296;6.900;2024-01-30T01:26:12;3.00;99.90
66568;DHT22;53422;49.296;6.900;2024-01-30T01:28:40;3.00;99.90
66568;DHT22;53422;49.296;6.900;2024-01-30T01:31:06;3.00;99.90
66568;DHT22;53422;49.296;6.900;2024-01-30T01:33:32;3.00;99.90
66568;DHT22;53422;49.296;6.900;2024-01-30T01:35:59;3.00;99.90
66568;DHT22;53422;49.296;6.900;2024-01-30T01:38:25;3.00;99.90
66568;DHT22;53422;49.296;6.900;2024-01-30T01:40:51;2.90;99.90
66568;DHT22;53422;49.296;6.900;2024-01-30T01:43:17;3.00;99.90
66568;DHT22;53422;49.296;6.900;2024-01-30T01:45:42;2.90;99.90
66568;DHT22;53422;49.296;6.900;2024-01-30T01:48:08;2.90;99.90
66568;DHT22;53422;49.296;6.900;2024-01-30T01:50:35;2.90;99.90
66568;DHT22;53422;49.296;6.900;2024-01-30T01:53:02;2.90;99.90
66568;DHT22;53422;49.296;6.900;2024-01-30T01:55:29;2.90;99.90
66568;DHT22;53422;49.296;6.900;2024-01-30T01:57:55;2.90;99.90
66568;DHT22;53422;49.296;6.900;2024-01-30T02:00:21;2.90;99.90
66568;DHT22;53422;49.296;6.900;2024-01-30T02:02:47;2.90;99.90
66568;DHT22;53422;49.296;6.900;2024-01-30T02:05:14;2.90;99.90
66568;DHT22;53422;49.296;6.900;2024-01-30T02:07:41;2.90;99.90
66568;DHT22;53422;49.296;6.900;2024-01-30T02:10:08;2.90;99.90
66568;DHT22;53422;49.296;6.900;2024-01-30T02:12:34;2.90;99.90
66568;DHT22;53422;49.296;6.900;2024-01-30T02:14:59;2.90;99.90
66568;DHT22;53422;49.296;6.900;2024-01-30T02:17:25;2.90;99.90
66568;DHT22;53422;49.296;6.900;2024-01-30T02:19:52;2.90;99.90
66568;DHT22;53422;49.296;6.900;2024-01-30T02:22:18;2.90;99.90
66568;DHT22;53422;49.296;6.900;2024-01-30T02:24:44;2.90;99.90
66568;DHT22;53422;49.296;6.900;2024-01-30T02:27:10;2.90;99.90
66568;DHT22;53422;49.296;6.900;2024-01-30T02:29:36;2.90;99.90
66568;DHT22;53422;49.296;6.900;2024-01-30T02:32:01;2.90;99.90
66568;DHT22;53422;49.296;6.900;2024-01-30T02:34:27;2.90;99.90
66568;DHT22;53422;49.296;6.900;2024-01-30T02:36:53;2.90;99.90
66568;DHT22;53422;49.296;6.900;2024-01-30T02:39:18;2.90;99.90
66568;DHT22;53422;49.296;6.900;2024-01-30T02:41:44;2.90;99.90
66568;DHT22;53422;49.296;6.900;2024-01-30T02:44:09;2.80;99.90
66568;DHT22;53422;49.296;6.900;2024-01-30T02:46:35;2.80;99.90
66568;DHT22;53422;49.296;6.900;2024-01-30T02:49:01;2.90;99.90
66568;DHT22;53422;49.296;6.900;2024-01-30T02:51:30;2.80;99.90
66568;DHT22;53422;49.296;6.900;2024-01-30T02:53:56;2.80;99.90
66568;DHT22;53422;49.296;6.900;2024-01-30T02:56:21;2.80;99.90
66568;DHT22;53422;49.296;6.900;2024-01-30T02:58:47;2.80;99.90
66568;DHT22;53422;49.296;6.900;2024-01-30T03:01:12;2.80;99.90
66568;DHT22;53422;49.296;6.900;2024-01-30T03:03:38;2.80;99.90
66568;DHT22;53422;49.296;6.900;2024-01-30T03:06:06;2.80;99.90
66568;DHT22;53422;49.296;6.900;2024-01-30T03:08:32;2.80;99.90
66568;DHT22;53422;49.296;6.900;2024-01-30T03:11:00;2.80;99.90
66568;DHT22;53422;49.296;6.900;2024-01-30T03:13:25;2.80;99.90
66568;DHT22;53422;49.296;6.900;2024-01-30T03:15:51;2.80;99.90
66568;DHT22;53422;49.296;6.900;2024-01-30T03:18:17;2.80;99.90
66568;DHT22;53422;49.296;6.900;2024-01-30T03:20:43;2.80;99.90
66568;DHT22;53422;49.296;6.900;2024-01-30T03:23:09;2.80;99.90
66568;DHT22;53422;49.296;6.900;2024-01-30T03:25:34;2.80;99.90
66568;DHT22;53422;49.296;6.900;2024-01-30T03:28:00;2.80;99.90
66568;DHT22;53422;49.296;6.900;2024-01-30T03:30:26;2.80;99.90
66568;DHT22;53422;49.296;6.900;2024-01-30T03:32:51;2.80;99.90
66568;DHT22;53422;49.296;6.900;2024-01-30T03:35:19;2.80;99.90
66568;DHT22;53422;49.296;6.900;2024-01-30T03:37:44;2.80;99.90
66568;DHT22;53422;49.296;6.900;2024-01-30T03:40:10;2.70;99.90
66568;DHT22;53422;49.296;6.900;2024-01-30T03:42:36;2.80;99.90
66568;DHT22;53422;49.296;6.900;2024-01-30T03:45:02;2.70;99.90
66568;DHT22;53422;49.296;6.900;2024-01-30T03:47:28;2.80;99.90
66568;DHT22;53422;49.296;6.900;2024-01-30T03:49:53;2.80;99.90
66568;DHT22;53422;49.296;6.900;2024-01-30T03:52:19;2.70;99.90
66568;DHT22;53422;49.296;6.900;2024-01-30T03:54:44;2.80;99.90
66568;DHT22;53422;49.296;6.900;2024-01-30T03:57:10;2.70;99.90
66568;DHT22;53422;49.296;6.900;2024-01-30T03:59:36;2.70;99.90
66568;DHT22;53422;49.296;6.900;2024-01-30T04:02:02;2.70;99.90
66568;DHT22;53422;49.296;6.900;2024-01-30T04:04:28;2.80;99.90
66568;DHT22;53422;49.296;6.900;2024-01-30T04:06:53;2.70;99.90
66568;DHT22;53422;49.296;6.900;2024-01-30T04:09:19;2.70;99.90
66568;DHT22;53422;49.296;6.900;2024-01-30T04:11:44;2.70;99.90
66568;DHT22;53422;49.296;6.900;2024-01-30T04:14:10;2.70;99.90
66568;DHT22;53422;49.296;6.900;2024-01-30T04:16:36;2.70;99.90
66568;DHT22;53422;49.296;6.900;2024-01-30T04:19:02;2.70;99.90
66568;DHT22;53422;49.296;6.900;2024-01-30T04:21:27;2.70;99.90
66568;DHT22;53422;49.296;6.900;2024-01-30T04:23:53;2.70;99.90
66568;DHT22;53422;49.296;6.900;2024-01-30T04:26:19;2.70;99.90
66568;DHT22;53422;49.296;6.900;2024-01-30T04:28:45;2.70;99.90
66568;DHT22;53422;49.296;6.900;2024-01-30T04:31:11;2.70;99.90
66568;DHT22;53422;49.296;6.900;2024-01-30T04:33:36;2.70;99.90
66568;DHT22;53422;49.296;6.900;2024-01-30T04:36:03;2.70;99.90
66568;DHT22;53422;49.296;6.900;2024-01-30T04:38:29;2.70;99.90
66568;DHT22;53422;49.296;6.900;2024-01-30T04:40:54;2.70;99.90
66568;DHT22;53422;49.296;6.900;2024-01-30T04:43:20;2.70;99.90
66568;DHT22;53422;49.296;6.900;2024-01-30T04:45:47;2.70;99.90
66568;DHT22;53422;49.296;6.900;2024-01-30T04:48:13;2.70;99.90
66568;DHT22;53422;49.296;6.900;2024-01-30T04:50:39;2.60;99.90
66568;DHT22;53422;49.296;6.900;2024-01-30T04:53:04;2.70;99.90
66568;DHT22;53422;49.296;6.900;2024-01-30T04:55:30;2.60;99.90
66568;DHT22;53422;49.296;6.900;2024-01-30T04:57:55;2.60;99.90
66568;DHT22;53422;49.296;6.900;2024-01-30T05:00:21;2.70;99.90
66568;DHT22;53422;49.296;6.900;2024-01-30T05:02:47;2.60;99.90
66568;DHT22;53422;49.296;6.900;2024-01-30T05:05:12;2.70;99.90
66568;DHT22;53422;49.296;6.900;2024-01-30T05:07:40;2.70;99.90
66568;DHT22;53422;49.296;6.900;2024-01-30T05:10:06;2.70;99.90
66568;DHT22;53422;49.296;6.900;2024-01-30T05:12:32;2.60;99.90
66568;DHT22;53422;49.296;6.900;2024-01-30T05:14:57;2.60;99.90
66568;DHT22;53422;49.296;6.900;2024-01-30T05:17:23;2.60;99.90
66568;DHT22;53422;49.296;6.900;2024-01-30T05:19:49;2.60;99.90
66568;DHT22;53422;49.296;6.900;2024-01-30T05:22:14;2.60;99.90
66568;DHT22;53422;49.296;6.900;2024-01-30T05:24:41;2.60;99.90
66568;DHT22;53422;49.296;6.900;2024-01-30T05:27:08;2.60;99.90
66568;DHT22;53422;49.296;6.900;2024-01-30T05:29:33;2.60;99.90
66568;DHT22;53422;49.296;6.900;2024-01-30T05:31:59;2.60;99.90
66568;DHT22;53422;49.296;6.900;2024-01-30T05:34:25;2.60;99.90
66568;DHT22;53422;49.296;6.900;2024-01-30T05:36:50;2.60;99.90
66568;DHT22;53422;49.296;6.900;2024-01-30T05:39:16;2.60;99.90
66568;DHT22;53422;49.296;6.900;2024-01-30T05:41:42;2.60;99.90
66568;DHT22;53422;49.296;6.900;2024-01-30T05:44:07;2.60;99.90
66568;DHT22;53422;49.296;6.900;2024-01-30T05:46:34;2.60;99.90
66568;DHT22;53422;49.296;6.900;2024-01-30T05:49:00;2.60;99.90
66568;DHT22;53422;49.296;6.900;2024-01-30T05:51:26;2.60;99.90
66568;DHT22;53422;49.296;6.900;2024-01-30T05:53:53;2.60;99.90
66568;DHT22;53422;49.296;6.900;2024-01-30T05:56:19;2.60;99.90
66568;DHT22;53422;49.296;6.900;2024-01-30T05:58:45;2.50;99.90
66568;DHT22;53422;49.296;6.900;2024-01-30T06:01:10;2.60;99.90
66568;DHT22;53422;49.296;6.900;2024-01-30T06:03:36;2.50;99.90
66568;DHT22;53422;49.296;6.900;2024-01-30T06:06:02;2.50;99.90
66568;DHT22;53422;49.296;6.900;2024-01-30T06:08:28;2.50;99.90
66568;DHT22;53422;49.296;6.900;2024-01-30T06:10:53;2.50;99.90
66568;DHT22;53422;49.296;6.900;2024-01-30T06:13:19;2.50;99.90
66568;DHT22;53422;49.296;6.900;2024-01-30T06:15:45;2.50;99.90
66568;DHT22;53422;49.296;6.900;2024-01-30T06:18:11;2.50;99.90
66568;DHT22;53422;49.296;6.900;2024-01-30T06:20:36;2.50;99.90
66568;DHT22;53422;49.296;6.900;2024-01-30T06:23:02;2.50;99.90
66568;DHT22;53422;49.296;6.900;2024-01-30T06:25:28;2.50;99.90
66568;DHT22;53422;49.296;6.900;2024-01-30T06:27:54;2.50;99.90
66568;DHT22;53422;49.296;6.900;2024-01-30T06:30:20;2.50;99.90
66568;DHT22;53422;49.296;6.900;2024-01-30T06:32:45;2.50;99.90
66568;DHT22;53422;49.296;6.900;2024-01-30T06:35:11;2.50;99.90
66568;DHT22;53422;49.296;6.900;2024-01-30T06:37:37;2.50;99.90
66568;DHT22;53422;49.296;6.900;2024-01-30T06:40:03;2.50;99.90
66568;DHT22;53422;49.296;6.900;2024-01-30T06:42:30;2.50;99.90
66568;DHT22;53422;49.296;6.900;2024-01-30T06:44:56;2.50;99.90
66568;DHT22;53422;49.296;6.900;2024-01-30T06:47:21;2.50;99.90
66568;DHT22;53422;49.296;6.900;2024-01-30T06:49:47;2.50;99.90
66568;DHT22;53422;49.296;6.900;2024-01-30T06:52:13;2.50;99.90
66568;DHT22;53422;49.296;6.900;2024-01-30T06:54:39;2.40;99.90
66568;DHT22;53422;49.296;6.900;2024-01-30T06:57:05;2.50;99.90
66568;DHT22;53422;49.296;6.900;2024-01-30T06:59:34;2.50;99.90
66568;DHT22;53422;49.296;6.900;2024-01-30T07:02:00;2.50;99.90
66568;DHT22;53422;49.296;6.900;2024-01-30T07:04:26;2.50;99.90
66568;DHT22;53422;49.296;6.900;2024-01-30T07:06:51;2.50;99.90
66568;DHT22;53422;49.296;6.900;2024-01-30T07:09:18;2.50;99.90
66568;DHT22;53422;49.296;6.900;2024-01-30T07:11:44;2.50;99.90
66568;DHT22;53422;49.296;6.900;2024-01-30T07:14:10;2.50;99.90
66568;DHT22;53422;49.296;6.900;2024-01-30T07:16:35;2.50;99.90
66568;DHT22;53422;49.296;6.900;2024-01-30T07:19:01;2.50;99.90
66568;DHT22;53422;49.296;6.900;2024-01-30T07:21:27;2.50;99.90
66568;DHT22;53422;49.296;6.900;2024-01-30T07:23:54;2.50;99.90
66568;DHT22;53422;49.296;6.900;2024-01-30T07:26:20;2.50;99.90
66568;DHT22;53422;49.296;6.900;2024-01-30T07:28:46;2.50;99.90
66568;DHT22;53422;49.296;6.900;2024-01-30T07:31:12;2.50;99.90
66568;DHT22;53422;49.296;6.900;2024-01-30T07:33:37;2.50;99.90
66568;DHT22;53422;49.296;6.900;2024-01-30T07:36:03;2.50;99.90
66568;DHT22;53422;49.296;6.900;2024-01-30T07:38:31;2.50;99.90
66568;DHT22;53422;49.296;6.900;2024-01-30T07:40:57;2.50;99.90
66568;DHT22;53422;49.296;6.900;2024-01-30T07:43:22;2.60;99.90
66568;DHT22;53422;49.296;6.900;2024-01-30T07:45:48;2.60;99.90
66568;DHT22;53422;49.296;6.900;2024-01-30T07:48:13;2.70;99.90
66568;DHT22;53422;49.296;6.900;2024-01-30T07:50:39;2.70;99.90
66568;DHT22;53422;49.296;6.900;2024-01-30T07:53:05;2.80;99.90
66568;DHT22;53422;49.296;6.900;2024-01-30T08:02:15;2.80;99.90
66568;DHT22;53422;49.296;6.900;2024-01-30T08:04:40;2.70;99.90
66568;DHT22;53422;49.296;6.900;2024-01-30T08:07:06;2.70;99.90
66568;DHT22;53422;49.296;6.900;2024-01-30T08:09:32;2.70;99.90
66568;DHT22;53422;49.296;6.900;2024-01-30T08:11:58;2.70;99.90
66568;DHT22;53422;49.296;6.900;2024-01-30T08:14:23;2.70;99.90
66568;DHT22;53422;49.296;6.900;2024-01-30T08:16:49;2.70;99.90
66568;DHT22;53422;49.296;6.900;2024-01-30T08:19:15;2.70;99.90
66568;DHT22;53422;49.296;6.900;2024-01-30T08:21:41;2.70;99.90
66568;DHT22;53422;49.296;6.900;2024-01-30T08:24:07;2.80;99.90
66568;DHT22;53422;49.296;6.900;2024-01-30T08:26:33;2.90;99.90
66568;DHT22;53422;49.296;6.900;2024-01-30T08:28:59;2.90;99.90
66568;DHT22;53422;49.296;6.900;2024-01-30T08:31:25;3.10;99.90
66568;DHT22;53422;49.296;6.900;2024-01-30T08:33:51;3.20;99.90
66568;DHT22;53422;49.296;6.900;2024-01-30T08:36:17;3.20;99.90
66568;DHT22;53422;49.296;6.900;2024-01-30T08:38:43;3.30;99.90
66568;DHT22;53422;49.296;6.900;2024-01-30T08:41:09;3.20;99.90
66568;DHT22;53422;49.296;6.900;2024-01-30T08:43:34;3.20;99.90
66568;DHT22;53422;49.296;6.900;2024-01-30T08:46:00;3.30;99.90
66568;DHT22;53422;49.296;6.900;2024-01-30T08:48:26;3.30;99.90
66568;DHT22;53422;49.296;6.900;2024-01-30T08:50:52;3.40;99.90
66568;DHT22;53422;49.296;6.900;2024-01-30T08:53:18;3.50;99.90
66568;DHT22;53422;49.296;6.900;2024-01-30T08:55:44;3.50;99.90
66568;DHT22;53422;49.296;6.900;2024-01-30T08:58:10;3.50;99.90
66568;DHT22;53422;49.296;6.900;2024-01-30T09:00:35;3.50;99.90
66568;DHT22;53422;49.296;6.900;2024-01-30T09:03:01;3.70;99.90
66568;DHT22;53422;49.296;6.900;2024-01-30T09:05:27;3.60;99.90
66568;DHT22;53422;49.296;6.900;2024-01-30T09:07:52;3.50;99.90
66568;DHT22;53422;49.296;6.900;2024-01-30T09:10:18;3.50;99.90
66568;DHT22;53422;49.296;6.900;2024-01-30T09:12:44;3.50;99.90
66568;DHT22;53422;49.296;6.900;2024-01-30T09:15:10;3.60;99.90
66568;DHT22;53422;49.296;6.900;2024-01-30T09:17:35;3.50;99.90
66568;DHT22;53422;49.296;6.900;2024-01-30T09:20:01;3.50;99.90
66568;DHT22;53422;49.296;6.900;2024-01-30T09:22:27;3.50;99.90
66568;DHT22;53422;49.296;6.900;2024-01-30T09:24:52;3.50;99.90
66568;DHT22;53422;49.296;6.900;2024-01-30T09:27:18;3.60;99.90
66568;DHT22;53422;49.296;6.900;2024-01-30T09:29:44;3.60;99.90
66568;DHT22;53422;49.296;6.900;2024-01-30T09:32:09;3.80;99.90
66568;DHT22;53422;49.296;6.900;2024-01-30T09:34:35;4.20;99.90
66568;DHT22;53422;49.296;6.900;2024-01-30T09:37:01;4.30;99.90
66568;DHT22;53422;49.296;6.900;2024-01-30T09:39:27;4.30;99.90
66568;DHT22;53422;49.296;6.900;2024-01-30T09:42:02;4.40;99.90
66568;DHT22;53422;49.296;6.900;2024-01-30T09:44:30;4.50;99.90
66568;DHT22;53422;49.296;6.900;2024-01-30T09:46:56;4.30;99.90
66568;DHT22;53422;49.296;6.900;2024-01-30T09:49:30;4.30;99.90
66568;DHT22;53422;49.296;6.900;2024-01-30T09:51:57;4.20;99.90
66568;DHT22;53422;49.296;6.900;2024-01-30T09:54:23;4.20;99.90
66568;DHT22;53422;49.296;6.900;2024-01-30T09:56:49;4.30;99.90
66568;DHT22;53422;49.296;6.900;2024-01-30T09:59:15;4.30;99.90
66568;DHT22;53422;49.296;6.900;2024-01-30T10:01:41;4.30;99.90
66568;DHT22;53422;49.296;6.900;2024-01-30T10:04:07;4.40;99.90
66568;DHT22;53422;49.296;6.900;2024-01-30T10:06:34;4.40;99.90
66568;DHT22;53422;49.296;6.900;2024-01-30T10:09:00;4.50;99.90
66568;DHT22;53422;49.296;6.900;2024-01-30T10:11:25;4.50;99.90
66568;DHT22;53422;49.296;6.900;2024-01-30T10:13:51;4.60;99.90
66568;DHT22;53422;49.296;6.900;2024-01-30T10:16:17;4.70;99.90
66568;DHT22;53422;49.296;6.900;2024-01-30T10:18:42;4.80;99.90
66568;DHT22;53422;49.296;6.900;2024-01-30T10:21:09;4.90;99.90
66568;DHT22;53422;49.296;6.900;2024-01-30T10:23:35;4.90;99.90
66568;DHT22;53422;49.296;6.900;2024-01-30T10:26:04;4.90;99.90
66568;DHT22;53422;49.296;6.900;2024-01-30T10:28:29;5.00;99.90
66568;DHT22;53422;49.296;6.900;2024-01-30T10:31:02;4.90;99.90
66568;DHT22;53422;49.296;6.900;2024-01-30T10:33:31;5.00;99.90
66568;DHT22;53422;49.296;6.900;2024-01-30T10:36:04;4.90;99.90
66568;DHT22;53422;49.296;6.900;2024-01-30T10:38:31;4.90;99.90
66568;DHT22;53422;49.296;6.900;2024-01-30T10:40:58;5.00;99.90
66568;DHT22;53422;49.296;6.900;2024-01-30T10:43:31;5.10;99.90
66568;DHT22;53422;49.296;6.900;2024-01-30T10:46:06;5.20;99.90
66568;DHT22;53422;49.296;6.900;2024-01-30T10:48:32;5.30;99.90
66568;DHT22;53422;49.296;6.900;2024-01-30T10:51:02;5.30;99.90
66568;DHT22;53422;49.296;6.900;2024-01-30T10:53:31;5.20;99.90
66568;DHT22;53422;49.296;6.900;2024-01-30T10:55:57;5.20;99.90
66568;DHT22;53422;49.296;6.900;2024-01-30T10:58:24;5.50;99.90
66568;DHT22;53422;49.296;6.900;2024-01-30T11:00:51;5.50;99.90
66568;DHT22;53422;49.296;6.900;2024-01-30T11:03:17;5.50;99.90
66568;DHT22;53422;49.296;6.900;2024-01-30T11:05:43;5.90;99.90
66568;DHT22;53422;49.296;6.900;2024-01-30T11:08:15;5.70;99.90
66568;DHT22;53422;49.296;6.900;2024-01-30T11:10:48;5.70;99.90
66568;DHT22;53422;49.296;6.900;2024-01-30T11:13:14;5.80;99.90
66568;DHT22;53422;49.296;6.900;2024-01-30T11:15:40;5.70;99.90
66568;DHT22;53422;49.296;6.900;2024-01-30T11:18:06;5.90;99.90
66568;DHT22;53422;49.296;6.900;2024-01-30T11:20:32;5.80;99.90
66568;DHT22;53422;49.296;6.900;2024-01-30T11:22:58;6.10;99.90
66568;DHT22;53422;49.296;6.900;2024-01-30T11:25:25;6.10;99.90
66568;DHT22;53422;49.296;6.900;2024-01-30T11:27:52;6.10;99.90
66568;DHT22;53422;49.296;6.900;2024-01-30T11:30:29;6.00;99.90
66568;DHT22;53422;49.296;6.900;2024-01-30T11:33:05;6.00;99.90
66568;DHT22;53422;49.296;6.900;2024-01-30T11:35:45;6.40;99.90
66568;DHT22;53422;49.296;6.900;2024-01-30T11:38:13;6.30;99.90
66568;DHT22;53422;49.296;6.900;2024-01-30T11:40:39;6.30;99.90
66568;DHT22;53422;49.296;6.900;2024-01-30T11:43:07;6.40;99.90
66568;DHT22;53422;49.296;6.900;2024-01-30T11:45:33;6.50;99.90
66568;DHT22;53422;49.296;6.900;2024-01-30T11:48:00;6.50;99.90
66568;DHT22;53422;49.296;6.900;2024-01-30T11:50:27;6.30;99.90
66568;DHT22;53422;49.296;6.900;2024-01-30T11:52:54;6.40;99.90
66568;DHT22;53422;49.296;6.900;2024-01-30T11:55:20;6.30;99.90
66568;DHT22;53422;49.296;6.900;2024-01-30T11:57:46;6.60;99.90
66568;DHT22;53422;49.296;6.900;2024-01-30T12:00:18;6.50;99.90
66568;DHT22;53422;49.296;6.900;2024-01-30T12:02:49;6.50;99.90
66568;DHT22;53422;49.296;6.900;2024-01-30T12:05:15;6.70;99.90
66568;DHT22;53422;49.296;6.900;2024-01-30T12:07:44;6.90;99.90
66568;DHT22;53422;49.296;6.900;2024-01-30T12:10:10;6.70;99.90
66568;DHT22;53422;49.296;6.900;2024-01-30T12:12:36;6.60;99.90
66568;DHT22;53422;49.296;6.900;2024-01-30T12:15:02;6.60;99.90
66568;DHT22;53422;49.296;6.900;2024-01-30T12:17:30;6.70;99.90
66568;DHT22;53422;49.296;6.900;2024-01-30T12:20:17;6.90;99.90
66568;DHT22;53422;49.296;6.900;2024-01-30T12:22:44;6.80;99.90
66568;DHT22;53422;49.296;6.900;2024-01-30T12:25:11;6.70;99.90
66568;DHT22;53422;49.296;6.900;2024-01-30T12:27:38;7.00;99.90
66568;DHT22;53422;49.296;6.900;2024-01-30T12:30:11;7.00;99.90
66568;DHT22;53422;49.296;6.900;2024-01-30T12:32:38;7.20;99.90
66568;DHT22;53422;49.296;6.900;2024-01-30T12:35:17;7.30;99.90
66568;DHT22;53422;49.296;6.900;2024-01-30T12:37:44;7.40;99.90
66568;DHT22;53422;49.296;6.900;2024-01-30T12:40:11;7.20;99.90
66568;DHT22;53422;49.296;6.900;2024-01-30T12:42:38;7.20;99.90
66568;DHT22;53422;49.296;6.900;2024-01-30T12:45:05;7.30;99.90
66568;DHT22;53422;49.296;6.900;2024-01-30T12:47:31;7.40;99.90
66568;DHT22;53422;49.296;6.900;2024-01-30T12:49:57;7.30;99.90
66568;DHT22;53422;49.296;6.900;2024-01-30T12:52:23;7.40;99.90
66568;DHT22;53422;49.296;6.900;2024-01-30T12:54:49;7.30;99.90
66568;DHT22;53422;49.296;6.900;2024-01-30T12:57:15;7.30;99.90
66568;DHT22;53422;49.296;6.900;2024-01-30T12:59:42;7.30;99.90
66568;DHT22;53422;49.296;6.900;2024-01-30T13:02:08;7.40;99.90
66568;DHT22;53422;49.296;6.900;2024-01-30T13:04:34;7.30;99.90
66568;DHT22;53422;49.296;6.900;2024-01-30T13:07:00;7.40;99.90
66568;DHT22;53422;49.296;6.900;2024-01-30T13:09:26;7.50;99.90
66568;DHT22;53422;49.296;6.900;2024-01-30T13:11:52;7.40;99.90
66568;DHT22;53422;49.296;6.900;2024-01-30T13:14:18;7.60;99.90
66568;DHT22;53422;49.296;6.900;2024-01-30T13:16:44;7.50;99.90
66568;DHT22;53422;49.296;6.900;2024-01-30T13:19:10;7.40;99.90
66568;DHT22;53422;49.296;6.900;2024-01-30T13:21:36;7.60;99.90
66568;DHT22;53422;49.296;6.900;2024-01-30T13:24:02;7.70;99.90
66568;DHT22;53422;49.296;6.900;2024-01-30T13:26:27;7.60;99.90
66568;DHT22;53422;49.296;6.900;2024-01-30T13:28:54;7.50;99.90
66568;DHT22;53422;49.296;6.900;2024-01-30T13:31:19;7.50;99.90
66568;DHT22;53422;49.296;6.900;2024-01-30T13:33:45;7.50;99.90
66568;DHT22;53422;49.296;6.900;2024-01-30T13:36:11;7.40;99.90
66568;DHT22;53422;49.296;6.900;2024-01-30T13:38:37;7.50;99.90
66568;DHT22;53422;49.296;6.900;2024-01-30T13:41:03;7.50;99.90
66568;DHT22;53422;49.296;6.900;2024-01-30T13:43:29;7.50;99.90
66568;DHT22;53422;49.296;6.900;2024-01-30T13:45:55;7.50;99.90
66568;DHT22;53422;49.296;6.900;2024-01-30T13:48:20;7.50;99.90
66568;DHT22;53422;49.296;6.900;2024-01-30T13:50:47;7.40;99.90
66568;DHT22;53422;49.296;6.900;2024-01-30T13:53:13;7.40;99.90
66568;DHT22;53422;49.296;6.900;2024-01-30T13:55:38;7.70;99.90
66568;DHT22;53422;49.296;6.900;2024-01-30T13:58:05;7.60;99.90
66568;DHT22;53422;49.296;6.900;2024-01-30T14:00:31;7.50;99.90
66568;DHT22;53422;49.296;6.900;2024-01-30T14:02:57;7.40;99.90
66568;DHT22;53422;49.296;6.900;2024-01-30T14:05:24;7.40;99.90
66568;DHT22;53422;49.296;6.900;2024-01-30T14:07:51;7.40;99.90
66568;DHT22;53422;49.296;6.900;2024-01-30T14:10:17;7.30;99.90
66568;DHT22;53422;49.296;6.900;2024-01-30T14:12:43;7.30;99.90
66568;DHT22;53422;49.296;6.900;2024-01-30T14:15:09;7.50;99.90
66568;DHT22;53422;49.296;6.900;2024-01-30T14:17:35;7.50;99.90
66568;DHT22;53422;49.296;6.900;2024-01-30T14:20:05;7.50;99.90
66568;DHT22;53422;49.296;6.900;2024-01-30T14:22:31;7.60;99.90
66568;DHT22;53422;49.296;6.900;2024-01-30T14:24:57;7.50;99.90
66568;DHT22;53422;49.296;6.900;2024-01-30T14:27:23;7.60;99.90
66568;DHT22;53422;49.296;6.900;2024-01-30T14:29:48;7.50;99.90
66568;DHT22;53422;49.296;6.900;2024-01-30T14:32:14;7.50;99.90
66568;DHT22;53422;49.296;6.900;2024-01-30T14:34:39;7.50;99.90
66568;DHT22;53422;49.296;6.900;2024-01-30T14:37:05;7.40;99.90
66568;DHT22;53422;49.296;6.900;2024-01-30T14:39:31;7.40;99.90
66568;DHT22;53422;49.296;6.900;2024-01-30T14:41:57;7.30;99.90
66568;DHT22;53422;49.296;6.900;2024-01-30T14:44:22;7.30;99.90
66568;DHT22;53422;49.296;6.900;2024-01-30T14:46:48;7.40;99.90
66568;DHT22;53422;49.296;6.900;2024-01-30T14:49:14;7.50;99.90
66568;DHT22;53422;49.296;6.900;2024-01-30T14:51:41;7.60;99.90
66568;DHT22;53422;49.296;6.900;2024-01-30T14:54:07;7.60;99.90
66568;DHT22;53422;49.296;6.900;2024-01-30T14:56:32;7.50;99.90
66568;DHT22;53422;49.296;6.900;2024-01-30T14:58:58;7.60;99.90
66568;DHT22;53422;49.296;6.900;2024-01-30T15:01:24;7.60;99.90
66568;DHT22;53422;49.296;6.900;2024-01-30T15:03:50;7.50;99.90
66568;DHT22;53422;49.296;6.900;2024-01-30T15:06:18;7.50;99.90
66568;DHT22;53422;49.296;6.900;2024-01-30T15:08:44;7.50;99.90
66568;DHT22;53422;49.296;6.900;2024-01-30T15:11:10;7.40;99.90
66568;DHT22;53422;49.296;6.900;2024-01-30T15:13:36;7.40;99.90
66568;DHT22;53422;49.296;6.900;2024-01-30T15:16:03;7.40;99.90
66568;DHT22;53422;49.296;6.900;2024-01-30T15:18:30;7.50;99.90
66568;DHT22;53422;49.296;6.900;2024-01-30T15:20:56;7.60;99.90
66568;DHT22;53422;49.296;6.900;2024-01-30T15:23:22;7.60;99.90
66568;DHT22;53422;49.296;6.900;2024-01-30T15:25:48;7.60;99.90
66568;DHT22;53422;49.296;6.900;2024-01-30T15:28:13;7.70;99.90
66568;DHT22;53422;49.296;6.900;2024-01-30T15:30:40;7.60;99.90
66568;DHT22;53422;49.296;6.900;2024-01-30T15:33:09;7.60;99.90
66568;DHT22;53422;49.296;6.900;2024-01-30T15:35:34;7.60;99.90
66568;DHT22;53422;49.296;6.900;2024-01-30T15:38:00;7.50;99.90
66568;DHT22;53422;49.296;6.900;2024-01-30T15:40:25;7.50;99.90
66568;DHT22;53422;49.296;6.900;2024-01-30T15:42:51;7.50;99.90
66568;DHT22;53422;49.296;6.900;2024-01-30T15:45:17;7.60;99.90